Airfield :
LOGIN :

Register | Disclaimer

   EN    FR    IT 

 










Legend :    VFR   Marginal VFR   IFR   Intensive IFR   Very Intensive IFR
Visi :
Ceiling :
>= 8 km
>= 3000ft
5 to 8 km
1000 to 3000 ft
1500m to 5 km
500 to 1000 ft
800 to 1500m
200 to 500 ft
< 800m
< 200 ft
Symbols :   Thunderstorms  Fog  Heavy snow  Heavy precipitations  Wind > 20 kt
SIGMETs :     Misc.  Thunderstorms  Icing  Turbulence  Mountain Waves  Volcanic Ashes






- Airport Elevation : 1416 ft
- IATA code : ZRH


LSZH - Zurich

CURRENT METAR :
  • 241150Z 28010KT 9999 FEW035 02/M06 Q1003 NOSIG

EXPIRED METARs :
  • 241120Z 29006KT 250V330 9999 FEW036 02/M06 Q1004 NOSIG
  • 241050Z 25009KT 9999 SCT035 02/M06 Q1004 NOSIG
  • 241020Z 26010KT 230V290 9999 FEW036 01/M06 Q1003 NOSIG
  • 240950Z 25010KT 9999 FEW030 01/M06 Q1003 NOSIG
  • 240920Z 24008KT 220V280 9999 FEW034 01/M06 Q1003 NOSIG

TAF TAF LSZH
Valid from the 24 at 12:00 until the 25 at 18:00 UTC


241125Z 2412/2518 25008KT 9999 SCT035 TX04/2414Z TNM02/2504Z TX02/2513Z
BECMG 2421/2424 4000 -SHSN BKN012
TEMPO 2423/2506 1200 SN BKN005
BECMG 2504/2506 9999 NSW
TEMPO 2506/2515 3000 SHSN BKN012
ATIS : +41 43 816 2295 (DEP) +41 43 816 2294 (ARR)



MET'MAP, your aeronautical weather chart ! - Copyright ORBIFLY December 2007 - Disclaimer

ORBIFLY MET'MAP TEAM :

Programming & Development : Alexandra Zaïnal
Concept & original design : Baudouin d'Aumeries
Assistance for programming : Marc-Olivier Méhu
Technical & hardware support : Manuel Goepfert

Contact : metmap@orbifly.com




SOURCES & CREDITS :

   NOAA